Llambi Campbell, Argentina
Current Conditions -  °F | °C
As of 1:00 PM on Friday 24 Oct 2014 (Local Time) from SAAR Reporting Station
Clear Clear  
Wind Chill: 88°   Ceiling: Unl
Heat Index: 88°   Visibility: 6mi
Dew Point: 63°   Wind: 7mph
Humidity: 43%   Direction: 50°NE
Pressure: 29.94"   Gusts: NA
Location:  31.18°S, 60.75°W
Report Text: SAAR 241600Z 05006KT CAVOK 31/17 Q1014
Loading
Personal Weather Stations






























Interactive Weather Map New forecast layout! Learn more

10-Day Weather Forecast

Advertisements
Track Severe Weather on mobile